Time;durP1;ratioP1;P1;durP2;ratioP2;P2;SDS_P1;SDS_P2;PMS_P1;PMS_P2;Temp;Humidity;BMP_temperature;BMP_pressure;BME280_temperature;BME280_humidity;BME280_pressure;Samples;Min_cycle;Max_cycle;Signal;HPM_P1;HPM_P2
2023/06/19 00:00:12;;;;;;;8.23;6.70;;;;;;;;;;2055528;28;20031;-90
2023/06/19 00:01:12;;;;;;;7.07;6.38;;;;;;;;;;2048606;28;20031;-90
2023/06/19 00:02:13;;;;;;;9.30;6.70;;;;;;;;;;2055365;28;20019;-91
2023/06/19 00:03:13;;;;;;;9.15;6.95;;;;;;;;;;2056395;28;20019;-90
2023/06/19 00:04:14;;;;;;;9.65;6.68;;;;;;;;;;2055444;28;20031;-91
2023/06/19 00:05:14;;;;;;;8.82;6.13;;;;;;;;;;2047423;29;20027;-90
2023/06/19 00:06:15;;;;;;;8.52;6.55;;;;;;;;;;2055540;28;20023;-89
2023/06/19 00:07:15;;;;;;;8.57;7.20;;;;;;;;;;2047588;29;20027;-90
2023/06/19 00:08:16;;;;;;;7.78;6.20;;;;;;;;;;2047585;29;20059;-89
2023/06/19 00:09:17;;;;;;;8.68;6.50;;;;;;;;;;2047282;29;20562;-90
2023/06/19 00:10:17;;;;;;;8.52;5.88;;;;;;;;;;2055445;28;20050;-90
2023/06/19 00:11:18;;;;;;;8.48;6.38;;;;;;;;;;2055252;28;20031;-91
2023/06/19 00:12:18;;;;;;;7.95;6.15;;;;;;;;;;2047459;29;20117;-90
2023/06/19 00:13:19;;;;;;;6.82;6.13;;;;;;;;;;2047356;29;20026;-90
2023/06/19 00:14:19;;;;;;;7.53;6.10;;;;;;;;;;2047441;29;20066;-90
2023/06/19 00:15:20;;;;;;;10.02;6.65;;;;;;;;;;2047151;29;20035;-90
2023/06/19 00:16:24;;;;;;;8.57;6.60;;;;;;;;;;2055468;28;20142;-90
2023/06/19 00:17:28;;;;;;;9.20;6.03;;;;;;;;;;2055556;28;20029;-90
2023/06/19 00:18:28;;;;;;;7.57;6.35;;;;;;;;;;2057815;28;20030;-88
2023/06/19 00:19:29;;;;;;;8.43;5.75;;;;;;;;;;2059929;28;20090;-90
2023/06/19 00:20:29;;;;;;;9.18;6.68;;;;;;;;;;2056610;28;20023;-89
2023/06/19 00:21:30;;;;;;;7.28;6.03;;;;;;;;;;2057471;28;20035;-89
2023/06/19 00:22:30;;;;;;;10.48;6.43;;;;;;;;;;2056649;28;20055;-89
2023/06/19 00:23:31;;;;;;;6.63;5.93;;;;;;;;;;2055877;28;20058;-90
2023/06/19 00:24:31;;;;;;;7.60;6.28;;;;;;;;;;2055832;28;20037;-90
2023/06/19 00:25:33;;;;;;;7.15;5.78;;;;;;;;;;1422629;28;10001707;-90
2023/06/19 00:26:35;;;;;;;7.30;6.25;;;;;;;;;;2056859;28;20299;-89
2023/06/19 00:27:35;;;;;;;7.20;6.10;;;;;;;;;;2057091;28;20469;-90
2023/06/19 00:28:38;;;;;;;8.20;6.25;;;;;;;;;;2056710;28;20293;-90
2023/06/19 00:29:39;;;;;;;9.23;5.47;;;;;;;;;;2056123;28;20030;-91
2023/06/19 00:30:40;;;;;;;7.93;6.53;;;;;;;;;;1698761;28;10400950;-90
2023/06/19 00:31:40;;;;;;;7.88;6.47;;;;;;;;;;2047934;28;20034;-90
2023/06/19 00:32:46;;;;;;;6.68;5.95;;;;;;;;;;2047432;29;20050;-90
2023/06/19 00:33:50;;;;;;;9.75;6.30;;;;;;;;;;2048207;28;20107;-90
2023/06/19 00:34:50;;;;;;;7.20;6.18;;;;;;;;;;2055937;28;20077;-90
2023/06/19 00:35:51;;;;;;;9.55;6.32;;;;;;;;;;2056552;28;20419;-89
2023/06/19 00:36:55;;;;;;;7.70;5.97;;;;;;;;;;2055365;28;20054;-90
2023/06/19 00:37:56;;;;;;;6.97;6.15;;;;;;;;;;2055476;28;20026;-89
2023/06/19 00:38:56;;;;;;;7.32;6.28;;;;;;;;;;2055666;28;20027;-90
2023/06/19 00:39:57;;;;;;;6.65;5.95;;;;;;;;;;2056347;28;20065;-89
2023/06/19 00:40:57;;;;;;;8.93;6.05;;;;;;;;;;2055417;28;20141;-90
2023/06/19 00:41:58;;;;;;;7.55;6.13;;;;;;;;;;2055452;28;20058;-91
2023/06/19 00:42:58;;;;;;;6.90;6.20;;;;;;;;;;2055381;28;20129;-91
2023/06/19 00:43:59;;;;;;;8.20;6.57;;;;;;;;;;2055453;28;20406;-92
2023/06/19 00:45:00;;;;;;;8.48;6.50;;;;;;;;;;2055739;28;20042;-89
2023/06/19 00:46:02;;;;;;;8.10;5.80;;;;;;;;;;2055251;28;20041;-90
2023/06/19 00:47:04;;;;;;;8.65;6.70;;;;;;;;;;2056051;28;20455;-91
2023/06/19 00:48:04;;;;;;;7.30;6.05;;;;;;;;;;2056158;28;20073;-91
2023/06/19 00:49:05;;;;;;;8.20;6.85;;;;;;;;;;2056463;28;20085;-90
2023/06/19 00:50:06;;;;;;;7.25;5.85;;;;;;;;;;2055198;28;20059;-89
2023/06/19 00:51:07;;;;;;;8.52;5.90;;;;;;;;;;2055572;28;20023;-89
2023/06/19 00:52:07;;;;;;;7.30;6.55;;;;;;;;;;2055499;28;20034;-90
2023/06/19 00:53:08;;;;;;;8.60;6.40;;;;;;;;;;2055329;28;20069;-91
2023/06/19 00:54:09;;;;;;;8.10;6.10;;;;;;;;;;2055481;28;20060;-89
2023/06/19 00:55:10;;;;;;;8.50;6.20;;;;;;;;;;2055696;28;20022;-91
2023/06/19 00:56:11;;;;;;;7.55;6.35;;;;;;;;;;2055443;28;20023;-88
2023/06/19 00:57:11;;;;;;;9.35;6.13;;;;;;;;;;2055463;28;20479;-89
2023/06/19 00:58:12;;;;;;;8.10;6.10;;;;;;;;;;2055707;28;20027;-90
2023/06/19 00:59:17;;;;;;;9.30;6.18;;;;;;;;;;2055408;28;20057;-89
2023/06/19 01:00:18;;;;;;;8.02;6.50;;;;;;;;;;2055382;28;20030;-89
2023/06/19 01:01:21;;;;;;;8.52;6.75;;;;;;;;;;2047257;29;20031;-88
2023/06/19 01:02:23;;;;;;;7.45;5.63;;;;;;;;;;2047474;28;20046;-91
2023/06/19 01:03:26;;;;;;;8.10;6.88;;;;;;;;;;1702868;28;10083149;-91
2023/06/19 01:04:27;;;;;;;7.60;5.85;;;;;;;;;;2055443;28;20090;-92
2023/06/19 01:05:27;;;;;;;7.18;6.32;;;;;;;;;;2055522;28;20124;-90
2023/06/19 01:06:37;;;;;;;7.40;6.65;;;;;;;;;;2055376;28;20027;-90
2023/06/19 01:07:56;;;;;;;8.02;6.10;;;;;;;;;;2053502;28;20059;-90
2023/06/19 01:09:07;;;;;;;7.20;5.35;;;;;;;;;;2056074;28;20031;-91
2023/06/19 01:10:12;;;;;;;6.80;6.10;;;;;;;;;;2048587;28;20519;-89
2023/06/19 01:11:17;;;;;;;8.15;6.78;;;;;;;;;;2055419;28;20418;-90
2023/06/19 01:12:25;;;;;;;9.68;6.15;;;;;;;;;;2056173;28;20026;-91
2023/06/19 01:13:37;;;;;;;7.00;6.10;;;;;;;;;;2056069;28;20034;-90
2023/06/19 01:14:57;;;;;;;9.43;6.30;;;;;;;;;;2055576;28;20019;-90
2023/06/19 01:15:58;;;;;;;7.53;6.00;;;;;;;;;;2055729;28;20026;-91
2023/06/19 01:16:59;;;;;;;9.40;6.55;;;;;;;;;;2056084;28;20025;-90
2023/06/19 01:18:00;;;;;;;10.00;5.93;;;;;;;;;;2056100;28;20023;-89
2023/06/19 01:19:01;;;;;;;6.85;5.85;;;;;;;;;;2055229;28;20039;-91
2023/06/19 01:20:06;;;;;;;8.43;6.20;;;;;;;;;;2055379;28;20117;-91
2023/06/19 01:21:15;;;;;;;7.65;5.95;;;;;;;;;;2058183;28;20498;-90
2023/06/19 01:22:31;;;;;;;9.90;6.55;;;;;;;;;;2055686;28;20045;-90
2023/06/19 01:23:31;;;;;;;8.40;6.18;;;;;;;;;;2055176;28;20022;-90
2023/06/19 01:24:32;;;;;;;8.95;6.10;;;;;;;;;;2055287;28;20093;-91
2023/06/19 01:25:32;;;;;;;7.57;5.80;;;;;;;;;;2055258;28;20464;-91
2023/06/19 01:26:33;;;;;;;6.85;5.82;;;;;;;;;;2047081;29;20450;-90
2023/06/19 01:27:33;;;;;;;7.07;6.13;;;;;;;;;;2047335;29;20105;-90
2023/06/19 01:28:38;;;;;;;8.82;6.35;;;;;;;;;;1705785;28;10000909;-89
2023/06/19 01:29:38;;;;;;;6.60;5.93;;;;;;;;;;2047451;29;20030;-89
2023/06/19 01:30:48;;;;;;;7.50;5.99;;;;;;;;;;2032293;28;10274888;-90
2023/06/19 01:31:59;;;;;;;7.57;6.40;;;;;;;;;;2055953;28;20280;-90
2023/06/19 01:33:08;;;;;;;6.72;5.70;;;;;;;;;;2055094;28;20057;-90
2023/06/19 01:34:11;;;;;;;7.70;5.85;;;;;;;;;;2048114;28;20035;-91
2023/06/19 01:35:12;;;;;;;6.57;5.88;;;;;;;;;;2047360;28;20024;-90
2023/06/19 01:36:14;;;;;;;9.57;6.38;;;;;;;;;;2055397;28;20487;-90
2023/06/19 01:37:15;;;;;;;6.95;5.63;;;;;;;;;;2055890;28;20026;-90
2023/06/19 01:38:17;;;;;;;9.15;5.88;;;;;;;;;;2055826;28;20115;-90
2023/06/19 01:39:19;;;;;;;7.28;6.05;;;;;;;;;;2055820;28;20046;-90
2023/06/19 01:40:25;;;;;;;8.45;6.15;;;;;;;;;;2058409;28;20078;-89
2023/06/19 01:41:27;;;;;;;6.70;5.75;;;;;;;;;;2053596;28;20028;-90
2023/06/19 01:42:28;;;;;;;6.60;5.80;;;;;;;;;;2062632;28;20029;-90
2023/06/19 01:43:31;;;;;;;7.03;5.85;;;;;;;;;;2062553;28;20018;-90
2023/06/19 01:44:32;;;;;;;7.40;6.35;;;;;;;;;;2063130;28;20033;-90
2023/06/19 01:45:33;;;;;;;8.75;6.07;;;;;;;;;;2062914;28;20027;-90
2023/06/19 01:46:33;;;;;;;6.40;5.75;;;;;;;;;;2059339;28;20037;-90
2023/06/19 01:47:34;;;;;;;6.82;5.88;;;;;;;;;;2056117;28;20026;-90
2023/06/19 01:48:36;;;;;;;6.30;5.70;;;;;;;;;;2056655;28;20029;-91
2023/06/19 01:49:37;;;;;;;7.25;5.82;;;;;;;;;;2057570;28;20078;-90
2023/06/19 01:50:37;;;;;;;7.82;6.03;;;;;;;;;;2056441;28;20475;-90
2023/06/19 01:51:37;;;;;;;7.97;5.90;;;;;;;;;;2055856;28;20132;-89
2023/06/19 01:52:39;;;;;;;6.55;5.30;;;;;;;;;;2047668;29;20483;-90
2023/06/19 01:53:39;;;;;;;7.32;5.60;;;;;;;;;;2056116;28;20049;-90
2023/06/19 01:54:40;;;;;;;7.07;6.07;;;;;;;;;;2055608;28;20063;-90
2023/06/19 01:55:41;;;;;;;6.80;5.93;;;;;;;;;;2055800;28;20100;-89
2023/06/19 01:56:41;;;;;;;7.95;6.03;;;;;;;;;;2061316;28;20201;-89
2023/06/19 01:57:42;;;;;;;6.90;5.50;;;;;;;;;;2057786;28;20124;-90
2023/06/19 01:58:42;;;;;;;7.22;5.65;;;;;;;;;;2063363;28;20015;-90
2023/06/19 01:59:42;;;;;;;6.90;5.57;;;;;;;;;;2063942;28;20023;-90
2023/06/19 02:00:43;;;;;;;6.55;5.88;;;;;;;;;;2055382;29;20082;-90
2023/06/19 02:01:43;;;;;;;9.10;5.63;;;;;;;;;;2062881;28;20010;-89
2023/06/19 02:02:44;;;;;;;8.80;6.10;;;;;;;;;;2063547;28;20023;-89
2023/06/19 02:03:44;;;;;;;7.40;5.65;;;;;;;;;;1702909;28;10302330;-89
2023/06/19 02:04:44;;;;;;;7.57;5.60;;;;;;;;;;2047467;29;20068;-90
2023/06/19 02:05:45;;;;;;;6.93;5.35;;;;;;;;;;2047721;29;20494;-89
2023/06/19 02:06:45;;;;;;;6.72;5.72;;;;;;;;;;2048013;29;20019;-90
2023/06/19 02:07:46;;;;;;;6.63;5.93;;;;;;;;;;2047743;29;20050;-89
2023/06/19 02:08:47;;;;;;;8.02;5.38;;;;;;;;;;2055688;28;20478;-89
2023/06/19 02:09:48;;;;;;;6.90;6.13;;;;;;;;;;2055180;28;20101;-90
2023/06/19 02:10:48;;;;;;;6.68;5.97;;;;;;;;;;2047175;29;20027;-89
2023/06/19 02:11:48;;;;;;;6.93;5.70;;;;;;;;;;2054979;28;20073;-90
2023/06/19 02:12:49;;;;;;;8.43;6.65;;;;;;;;;;2055751;28;20062;-89
2023/06/19 02:13:49;;;;;;;5.72;5.18;;;;;;;;;;2055057;28;20551;-89
2023/06/19 02:14:50;;;;;;;8.07;5.90;;;;;;;;;;2047178;29;20049;-91
2023/06/19 02:15:51;;;;;;;8.32;5.78;;;;;;;;;;2047310;29;20049;-90
2023/06/19 02:16:51;;;;;;;6.85;5.80;;;;;;;;;;2046903;29;20376;-90
2023/06/19 02:17:54;;;;;;;8.98;6.65;;;;;;;;;;2055193;28;20039;-89
2023/06/19 02:18:56;;;;;;;8.98;6.10;;;;;;;;;;2055193;28;20049;-90
2023/06/19 02:19:56;;;;;;;6.97;6.25;;;;;;;;;;2046930;28;20150;-90
2023/06/19 02:20:57;;;;;;;8.05;6.15;;;;;;;;;;2055060;28;20023;-90
2023/06/19 02:21:57;;;;;;;8.27;6.55;;;;;;;;;;2054938;28;20030;-90
2023/06/19 02:22:58;;;;;;;6.20;5.50;;;;;;;;;;2047205;29;20466;-90
2023/06/19 02:23:58;;;;;;;11.00;6.45;;;;;;;;;;2055262;28;20039;-89
2023/06/19 02:24:59;;;;;;;8.35;6.18;;;;;;;;;;2055615;28;20537;-90
2023/06/19 02:25:59;;;;;;;8.40;6.05;;;;;;;;;;2054964;28;20168;-90
2023/06/19 02:27:00;;;;;;;8.98;6.45;;;;;;;;;;2055089;28;20371;-90
2023/06/19 02:28:01;;;;;;;8.52;6.82;;;;;;;;;;2047534;28;20027;-91
2023/06/19 02:29:01;;;;;;;9.15;6.43;;;;;;;;;;2038801;29;20064;-90
2023/06/19 02:30:03;;;;;;;10.32;6.97;;;;;;;;;;2046971;29;20031;-90
2023/06/19 02:31:03;;;;;;;8.73;5.93;;;;;;;;;;2055135;28;20082;-91
2023/06/19 02:32:04;;;;;;;8.25;6.28;;;;;;;;;;2054915;28;20563;-90
2023/06/19 02:33:04;;;;;;;6.60;5.90;;;;;;;;;;2055346;28;20090;-90
2023/06/19 02:34:05;;;;;;;9.23;6.55;;;;;;;;;;2055219;28;20038;-90
2023/06/19 02:35:08;;;;;;;7.32;6.07;;;;;;;;;;2047221;29;20024;-90
2023/06/19 02:36:09;;;;;;;8.15;6.40;;;;;;;;;;2047282;28;20019;-90
2023/06/19 02:37:09;;;;;;;6.75;6.05;;;;;;;;;;2047501;29;20094;-90
2023/06/19 02:38:12;;;;;;;7.97;6.15;;;;;;;;;;2047008;29;20024;-89
2023/06/19 02:39:13;;;;;;;8.43;6.53;;;;;;;;;;2047263;28;20058;-90
2023/06/19 02:40:14;;;;;;;6.90;5.70;;;;;;;;;;2055005;28;20504;-90
2023/06/19 02:41:15;;;;;;;7.15;6.00;;;;;;;;;;2055754;28;20034;-88
2023/06/19 02:42:15;;;;;;;6.95;5.82;;;;;;;;;;2055552;28;20023;-89
2023/06/19 02:43:15;;;;;;;8.00;5.80;;;;;;;;;;2055188;28;20079;-89
2023/06/19 02:44:16;;;;;;;7.13;6.43;;;;;;;;;;1697329;29;10252269;-89
2023/06/19 02:45:17;;;;;;;8.50;6.13;;;;;;;;;;2058474;28;20022;-88
2023/06/19 02:46:17;;;;;;;8.57;6.45;;;;;;;;;;2059045;28;20049;-90
2023/06/19 02:47:18;;;;;;;7.28;6.20;;;;;;;;;;2055320;28;20062;-90
2023/06/19 02:48:19;;;;;;;6.88;6.22;;;;;;;;;;2055390;28;20030;-90
2023/06/19 02:49:19;;;;;;;8.23;5.85;;;;;;;;;;2055290;28;20022;-90
2023/06/19 02:50:20;;;;;;;8.07;6.03;;;;;;;;;;2047029;29;20028;-89
2023/06/19 02:51:20;;;;;;;7.53;5.97;;;;;;;;;;2047052;29;20390;-90
2023/06/19 02:52:21;;;;;;;7.22;5.88;;;;;;;;;;2046963;29;20565;-90
2023/06/19 02:53:21;;;;;;;6.50;5.90;;;;;;;;;;2055142;28;20031;-90
2023/06/19 02:54:22;;;;;;;7.95;6.53;;;;;;;;;;2048487;29;20081;-89
2023/06/19 02:55:22;;;;;;;9.20;6.75;;;;;;;;;;2056296;28;20065;-88
2023/06/19 02:56:25;;;;;;;6.90;5.70;;;;;;;;;;2056180;28;20185;-89
2023/06/19 02:57:25;;;;;;;7.72;6.00;;;;;;;;;;2056216;28;20027;-89
2023/06/19 02:58:26;;;;;;;6.72;5.88;;;;;;;;;;2056340;28;20457;-88
2023/06/19 02:59:27;;;;;;;10.43;5.97;;;;;;;;;;2056331;28;20112;-89
2023/06/19 03:00:28;;;;;;;7.15;5.95;;;;;;;;;;2056741;28;20090;-89
2023/06/19 03:01:29;;;;;;;7.13;5.75;;;;;;;;;;2056566;28;20186;-89
2023/06/19 03:02:29;;;;;;;6.80;6.10;;;;;;;;;;2056471;28;20026;-89
2023/06/19 03:03:30;;;;;;;6.63;5.63;;;;;;;;;;2056311;28;20023;-89
2023/06/19 03:04:31;;;;;;;6.82;5.75;;;;;;;;;;2048615;28;20063;-90
2023/06/19 03:05:31;;;;;;;7.32;5.43;;;;;;;;;;2048539;29;20415;-91
2023/06/19 03:06:38;;;;;;;6.93;5.45;;;;;;;;;;2056333;28;20023;-90
2023/06/19 03:07:39;;;;;;;7.28;6.25;;;;;;;;;;2059132;28;20030;-90
2023/06/19 03:08:39;;;;;;;8.38;6.22;;;;;;;;;;2055552;28;20521;-90
2023/06/19 03:09:40;;;;;;;8.88;5.85;;;;;;;;;;2055812;28;20019;-91
2023/06/19 03:10:41;;;;;;;8.23;6.25;;;;;;;;;;2056757;28;20435;-90
2023/06/19 03:11:41;;;;;;;6.75;5.82;;;;;;;;;;2055973;28;20356;-90
2023/06/19 03:12:42;;;;;;;7.97;5.90;;;;;;;;;;2047774;28;20106;-90
2023/06/19 03:13:48;;;;;;;7.97;6.05;;;;;;;;;;2057087;28;20014;-90
2023/06/19 03:14:48;;;;;;;6.35;5.50;;;;;;;;;;2055692;28;20106;-90
2023/06/19 03:15:48;;;;;;;7.75;6.65;;;;;;;;;;2047948;29;20023;-90
2023/06/19 03:16:49;;;;;;;7.82;6.05;;;;;;;;;;2047758;29;20019;-90
2023/06/19 03:17:49;;;;;;;7.10;6.13;;;;;;;;;;2047491;29;20094;-90
2023/06/19 03:18:50;;;;;;;6.30;5.65;;;;;;;;;;2047744;29;20452;-91
2023/06/19 03:19:50;;;;;;;8.75;6.05;;;;;;;;;;2047515;29;20054;-90
2023/06/19 03:20:51;;;;;;;6.57;5.95;;;;;;;;;;2055362;28;20574;-90
2023/06/19 03:21:52;;;;;;;8.25;5.88;;;;;;;;;;2055567;28;20023;-90
2023/06/19 03:22:52;;;;;;;6.95;5.70;;;;;;;;;;2056128;28;20019;-90
2023/06/19 03:23:54;;;;;;;7.38;6.10;;;;;;;;;;2056001;28;20610;-90
2023/06/19 03:24:55;;;;;;;7.45;6.28;;;;;;;;;;2056486;28;20022;-90
2023/06/19 03:25:57;;;;;;;6.95;5.72;;;;;;;;;;2055757;28;20158;-90
2023/06/19 03:26:57;;;;;;;8.88;6.22;;;;;;;;;;2055653;28;20065;-91
2023/06/19 03:27:57;;;;;;;8.15;6.05;;;;;;;;;;2055467;28;20295;-90
2023/06/19 03:28:59;;;;;;;6.60;5.90;;;;;;;;;;2055620;28;20047;-90
2023/06/19 03:29:59;;;;;;;8.00;5.70;;;;;;;;;;2056466;28;20023;-90
2023/06/19 03:31:00;;;;;;;7.22;6.25;;;;;;;;;;2055768;28;20554;-90
2023/06/19 03:32:01;;;;;;;6.93;6.22;;;;;;;;;;2055518;28;20038;-91
2023/06/19 03:33:02;;;;;;;7.07;6.10;;;;;;;;;;2056853;28;20117;-89
2023/06/19 03:34:03;;;;;;;7.70;5.88;;;;;;;;;;2058914;28;20018;-89
2023/06/19 03:35:05;;;;;;;7.88;5.88;;;;;;;;;;2059688;28;20164;-91
2023/06/19 03:36:05;;;;;;;7.95;6.28;;;;;;;;;;2056704;28;20191;-90
2023/06/19 03:37:06;;;;;;;6.43;5.75;;;;;;;;;;2056632;28;20035;-90
2023/06/19 03:38:06;;;;;;;7.45;6.05;;;;;;;;;;2056285;28;20035;-91
2023/06/19 03:39:07;;;;;;;6.85;5.60;;;;;;;;;;2056533;28;20388;-90
2023/06/19 03:40:13;;;;;;;8.27;5.80;;;;;;;;;;2056495;28;20030;-90
2023/06/19 03:41:13;;;;;;;7.68;5.93;;;;;;;;;;2055399;28;20592;-91
2023/06/19 03:42:13;;;;;;;6.45;5.85;;;;;;;;;;2055571;28;20089;-90
2023/06/19 03:43:14;;;;;;;7.72;6.28;;;;;;;;;;2056173;28;20018;-90
2023/06/19 03:44:14;;;;;;;7.45;6.00;;;;;;;;;;2056373;28;20026;-90
2023/06/19 03:45:15;;;;;;;6.50;5.80;;;;;;;;;;2055862;28;20027;-90
2023/06/19 03:46:15;;;;;;;6.82;5.85;;;;;;;;;;2047869;29;20034;-90
2023/06/19 03:47:16;;;;;;;8.35;5.95;;;;;;;;;;2055648;28;20098;-90
2023/06/19 03:48:17;;;;;;;6.80;6.07;;;;;;;;;;2056339;28;20027;-90
2023/06/19 03:49:17;;;;;;;7.45;5.47;;;;;;;;;;2056375;28;20026;-89
2023/06/19 03:50:18;;;;;;;7.47;5.63;;;;;;;;;;2055800;28;20109;-89
2023/06/19 03:51:18;;;;;;;9.52;5.95;;;;;;;;;;2055715;28;20114;-90
2023/06/19 03:52:19;;;;;;;7.55;5.85;;;;;;;;;;2057213;28;20035;-89
2023/06/19 03:53:19;;;;;;;7.78;5.82;;;;;;;;;;2057012;28;20050;-89
2023/06/19 03:54:20;;;;;;;6.40;5.20;;;;;;;;;;2055815;28;20031;-89
2023/06/19 03:55:21;;;;;;;7.00;6.05;;;;;;;;;;2055530;28;20525;-89
2023/06/19 03:56:21;;;;;;;6.72;5.47;;;;;;;;;;2056287;28;20022;-89
2023/06/19 03:57:21;;;;;;;7.35;5.38;;;;;;;;;;2055846;28;20190;-90
2023/06/19 03:58:22;;;;;;;7.93;6.15;;;;;;;;;;2055917;28;20034;-90
2023/06/19 03:59:23;;;;;;;6.70;5.65;;;;;;;;;;2055815;28;20117;-90
2023/06/19 04:00:23;;;;;;;5.75;5.07;;;;;;;;;;2047982;29;20043;-90
2023/06/19 04:01:24;;;;;;;7.38;5.75;;;;;;;;;;2055653;28;20030;-90
2023/06/19 04:02:25;;;;;;;8.07;6.00;;;;;;;;;;2056180;28;20054;-90
2023/06/19 04:03:25;;;;;;;8.07;5.93;;;;;;;;;;2056090;28;20047;-89
2023/06/19 04:04:26;;;;;;;7.88;6.20;;;;;;;;;;2049214;28;20027;-89
2023/06/19 04:05:26;;;;;;;8.43;5.40;;;;;;;;;;2041586;29;20135;-90
2023/06/19 04:06:27;;;;;;;8.70;5.75;;;;;;;;;;2059323;28;20034;-89
2023/06/19 04:07:28;;;;;;;9.75;7.85;;;;;;;;;;2061561;28;20086;-89
2023/06/19 04:08:28;;;;;;;6.03;5.50;;;;;;;;;;2061443;28;20023;-88
2023/06/19 04:09:29;;;;;;;6.60;5.38;;;;;;;;;;2063521;28;20030;-89
2023/06/19 04:10:29;;;;;;;8.13;5.57;;;;;;;;;;2062541;28;20026;-89
2023/06/19 04:11:30;;;;;;;6.53;5.15;;;;;;;;;;2058518;28;20026;-90
2023/06/19 04:12:30;;;;;;;5.65;5.05;;;;;;;;;;2057423;28;20050;-89
2023/06/19 04:13:30;;;;;;;9.43;5.35;;;;;;;;;;2049239;29;20034;-90
2023/06/19 04:14:31;;;;;;;6.72;5.60;;;;;;;;;;2056765;28;20099;-89
2023/06/19 04:15:32;;;;;;;8.63;5.45;;;;;;;;;;2057275;28;20079;-90
2023/06/19 04:16:32;;;;;;;6.97;5.30;;;;;;;;;;2055952;28;20046;-90
2023/06/19 04:17:33;;;;;;;5.43;4.93;;;;;;;;;;2055999;28;20355;-89
2023/06/19 04:18:33;;;;;;;6.85;5.63;;;;;;;;;;2055618;28;20529;-89
2023/06/19 04:19:33;;;;;;;8.27;5.32;;;;;;;;;;2048024;29;20019;-90
2023/06/19 04:20:34;;;;;;;5.32;4.82;;;;;;;;;;2056069;28;20320;-89
2023/06/19 04:21:34;;;;;;;8.13;5.68;;;;;;;;;;2056663;28;20019;-89
2023/06/19 04:22:35;;;;;;;6.35;5.75;;;;;;;;;;2059023;28;20015;-89
2023/06/19 04:23:35;;;;;;;6.40;5.13;;;;;;;;;;2064092;28;20021;-88
2023/06/19 04:24:36;;;;;;;6.90;5.45;;;;;;;;;;2066104;28;20061;-91
2023/06/19 04:25:37;;;;;;;6.32;5.68;;;;;;;;;;2066164;28;20078;-90
2023/06/19 04:26:37;;;;;;;10.02;5.70;;;;;;;;;;2065315;28;20054;-90
2023/06/19 04:27:37;;;;;;;7.82;6.20;;;;;;;;;;2064077;28;20026;-89
2023/06/19 04:28:39;;;;;;;7.47;6.18;;;;;;;;;;2060049;28;20033;-89
2023/06/19 04:29:39;;;;;;;7.00;6.30;;;;;;;;;;2056472;28;20434;-90
2023/06/19 04:30:40;;;;;;;7.97;6.18;;;;;;;;;;2048145;29;20027;-89
2023/06/19 04:31:40;;;;;;;9.52;5.43;;;;;;;;;;2056414;28;20023;-89
2023/06/19 04:32:41;;;;;;;7.03;5.85;;;;;;;;;;2055881;28;20043;-90
2023/06/19 04:33:41;;;;;;;6.80;5.47;;;;;;;;;;2047792;29;20026;-89
2023/06/19 04:34:45;;;;;;;5.47;4.97;;;;;;;;;;1696322;29;10284047;-89
2023/06/19 04:35:48;;;;;;;6.30;4.88;;;;;;;;;;2048932;28;20020;-91
2023/06/19 04:36:48;;;;;;;5.70;5.18;;;;;;;;;;2048171;28;20034;-88
2023/06/19 04:37:49;;;;;;;5.35;4.85;;;;;;;;;;2055949;28;20034;-89
2023/06/19 04:38:52;;;;;;;5.13;4.47;;;;;;;;;;2055053;28;20118;-89
2023/06/19 04:39:53;;;;;;;6.20;4.93;;;;;;;;;;2055051;28;20133;-90
2023/06/19 04:40:53;;;;;;;6.70;5.05;;;;;;;;;;2055585;28;20098;-90
2023/06/19 04:41:56;;;;;;;5.88;5.15;;;;;;;;;;2055803;28;20030;-90
2023/06/19 04:42:57;;;;;;;5.38;4.82;;;;;;;;;;2055856;28;20022;-90
2023/06/19 04:44:05;;;;;;;5.02;4.48;;;;;;;;;;1965687;28;10275752;-91
2023/06/19 04:45:07;;;;;;;7.50;5.57;;;;;;;;;;2055393;28;20766;-90
2023/06/19 04:46:07;;;;;;;5.78;5.18;;;;;;;;;;2055375;28;20027;-90
2023/06/19 04:47:08;;;;;;;7.70;5.43;;;;;;;;;;2055924;28;20034;-90
2023/06/19 04:48:08;;;;;;;6.32;5.22;;;;;;;;;;2056064;28;20033;-91
2023/06/19 04:49:09;;;;;;;5.20;4.70;;;;;;;;;;2055105;28;20489;-90
2023/06/19 04:50:09;;;;;;;6.75;4.68;;;;;;;;;;1698380;28;10352211;-91
2023/06/19 04:51:11;;;;;;;7.25;4.82;;;;;;;;;;2055945;28;20116;-90
2023/06/19 04:52:12;;;;;;;5.85;4.70;;;;;;;;;;2055749;28;20121;-89
2023/06/19 04:53:12;;;;;;;7.03;5.03;;;;;;;;;;2055022;28;20268;-91
2023/06/19 04:54:13;;;;;;;10.43;4.82;;;;;;;;;;2055135;28;20121;-90
2023/06/19 04:55:13;;;;;;;5.32;4.47;;;;;;;;;;2055964;28;20030;-91
2023/06/19 04:56:14;;;;;;;6.53;5.13;;;;;;;;;;2055996;28;20134;-90
2023/06/19 04:57:15;;;;;;;6.43;5.25;;;;;;;;;;2056277;28;20158;-89
2023/06/19 04:58:16;;;;;;;5.60;5.05;;;;;;;;;;2056014;28;20038;-90
2023/06/19 04:59:18;;;;;;;5.65;4.70;;;;;;;;;;2055793;28;20421;-90
2023/06/19 05:00:23;;;;;;;6.50;5.03;;;;;;;;;;2055729;28;20031;-91
2023/06/19 05:01:27;;;;;;;5.20;4.70;;;;;;;;;;2054942;28;20304;-90
2023/06/19 05:02:30;;;;;;;6.68;5.32;;;;;;;;;;2054863;28;20038;-90
2023/06/19 05:03:30;;;;;;;6.05;4.70;;;;;;;;;;2056048;28;20030;-92
2023/06/19 05:04:32;;;;;;;5.70;4.75;;;;;;;;;;2057952;28;20494;-89
2023/06/19 05:05:34;;;;;;;5.93;4.85;;;;;;;;;;2055661;28;20049;-89
2023/06/19 05:06:34;;;;;;;7.03;4.80;;;;;;;;;;2048057;28;20502;-91
2023/06/19 05:07:35;;;;;;;5.35;4.85;;;;;;;;;;2047183;29;20058;-89
2023/06/19 05:08:35;;;;;;;8.45;5.20;;;;;;;;;;2047469;29;20023;-90
2023/06/19 05:09:38;;;;;;;5.22;4.30;;;;;;;;;;2054790;28;20105;-89
2023/06/19 05:10:38;;;;;;;5.40;4.90;;;;;;;;;;2055568;28;20027;-89
2023/06/19 05:11:39;;;;;;;6.30;4.40;;;;;;;;;;2058492;28;20034;-89
2023/06/19 05:12:39;;;;;;;11.13;6.15;;;;;;;;;;2060840;28;20026;-89
2023/06/19 05:13:40;;;;;;;5.78;4.25;;;;;;;;;;2057279;28;20034;-91
2023/06/19 05:14:46;;;;;;;5.30;4.38;;;;;;;;;;1838428;28;10921199;-91
2023/06/19 05:15:47;;;;;;;5.75;4.68;;;;;;;;;;2056042;28;20255;-90
2023/06/19 05:16:47;;;;;;;5.40;4.47;;;;;;;;;;2055319;28;20037;-91
2023/06/19 05:17:47;;;;;;;6.20;4.57;;;;;;;;;;2055174;28;20023;-90
2023/06/19 05:18:51;;;;;;;6.30;4.30;;;;;;;;;;2055487;28;20034;-91
2023/06/19 05:19:51;;;;;;;6.95;4.57;;;;;;;;;;2055490;28;20096;-91
2023/06/19 05:20:52;;;;;;;5.85;4.15;;;;;;;;;;2054745;28;20082;-91
2023/06/19 05:21:53;;;;;;;4.82;4.25;;;;;;;;;;2047051;29;20051;-91
2023/06/19 05:22:53;;;;;;;5.10;4.55;;;;;;;;;;2055363;28;20023;-91
2023/06/19 05:23:54;;;;;;;5.07;4.57;;;;;;;;;;2054766;28;20038;-89
2023/06/19 05:24:54;;;;;;;5.03;4.50;;;;;;;;;;2055266;28;20113;-90
2023/06/19 05:25:55;;;;;;;6.30;4.60;;;;;;;;;;2055775;28;20077;-91
2023/06/19 05:26:56;;;;;;;5.97;4.40;;;;;;;;;;2054895;28;20506;-91
2023/06/19 05:27:56;;;;;;;5.10;4.13;;;;;;;;;;2046991;29;20109;-91
2023/06/19 05:28:56;;;;;;;4.68;4.13;;;;;;;;;;2055438;28;20034;-91
2023/06/19 05:29:57;;;;;;;6.90;4.18;;;;;;;;;;2056934;28;20034;-90
2023/06/19 05:30:57;;;;;;;5.10;4.57;;;;;;;;;;2055747;28;20042;-92
2023/06/19 05:31:58;;;;;;;5.32;4.32;;;;;;;;;;2047707;29;20031;-90
2023/06/19 05:32:59;;;;;;;6.05;4.47;;;;;;;;;;2055442;28;20033;-91
2023/06/19 05:33:59;;;;;;;7.70;5.15;;;;;;;;;;2056102;28;20034;-89
2023/06/19 05:35:00;;;;;;;9.07;4.60;;;;;;;;;;2055803;28;20026;-90
2023/06/19 05:36:01;;;;;;;5.90;4.50;;;;;;;;;;2055841;28;20441;-92
2023/06/19 05:37:03;;;;;;;6.82;4.53;;;;;;;;;;2055644;28;20506;-89
2023/06/19 05:38:05;;;;;;;5.53;4.20;;;;;;;;;;2055615;28;20058;-91
2023/06/19 05:39:05;;;;;;;4.85;4.15;;;;;;;;;;2056003;28;20417;-90
2023/06/19 05:40:07;;;;;;;5.20;4.13;;;;;;;;;;2055693;28;20049;-91
2023/06/19 05:41:08;;;;;;;6.10;4.60;;;;;;;;;;2047198;29;20117;-89
2023/06/19 05:42:11;;;;;;;4.90;3.85;;;;;;;;;;2047254;28;20407;-91
2023/06/19 05:43:12;;;;;;;6.30;4.10;;;;;;;;;;2055714;28;20023;-90
2023/06/19 05:44:16;;;;;;;5.18;4.25;;;;;;;;;;2055313;28;20093;-90
2023/06/19 05:45:17;;;;;;;5.63;4.30;;;;;;;;;;2056236;28;20038;-90
2023/06/19 05:46:17;;;;;;;5.63;4.20;;;;;;;;;;2058409;28;20406;-90
2023/06/19 05:47:20;;;;;;;4.80;4.35;;;;;;;;;;2056842;28;20539;-90
2023/06/19 05:48:21;;;;;;;6.55;4.38;;;;;;;;;;2055080;28;20514;-91
2023/06/19 05:49:21;;;;;;;4.47;4.07;;;;;;;;;;2048640;28;20047;-91
2023/06/19 05:50:22;;;;;;;4.82;4.18;;;;;;;;;;2055614;28;20066;-91
2023/06/19 05:51:22;;;;;;;4.72;3.85;;;;;;;;;;2056051;28;20031;-92
2023/06/19 05:52:23;;;;;;;5.53;4.28;;;;;;;;;;2055021;28;20031;-92
2023/06/19 05:53:25;;;;;;;4.32;3.60;;;;;;;;;;2046293;28;20357;-90
2023/06/19 05:54:26;;;;;;;4.88;3.80;;;;;;;;;;2047164;28;20118;-90
2023/06/19 05:55:29;;;;;;;6.20;4.00;;;;;;;;;;2047048;29;20039;-89
2023/06/19 05:56:30;;;;;;;4.88;4.15;;;;;;;;;;2055267;28;20115;-90
2023/06/19 05:57:31;;;;;;;6.47;4.20;;;;;;;;;;2055802;28;20067;-90
2023/06/19 05:58:32;;;;;;;4.88;4.30;;;;;;;;;;2055497;28;20108;-90
2023/06/19 05:59:33;;;;;;;5.47;4.22;;;;;;;;;;2055266;28;20050;-91
2023/06/19 06:00:33;;;;;;;6.50;4.00;;;;;;;;;;1714178;28;10001159;-91
2023/06/19 06:01:33;;;;;;;5.50;4.53;;;;;;;;;;2059474;28;20019;-92
2023/06/19 06:02:34;;;;;;;4.70;4.20;;;;;;;;;;2055622;28;20034;-89
2023/06/19 06:03:35;;;;;;;6.57;3.95;;;;;;;;;;2055505;28;20412;-90
2023/06/19 06:04:36;;;;;;;5.93;4.22;;;;;;;;;;2054953;28;20040;-93
2023/06/19 06:06:02;;;;;;;5.15;4.00;;;;;;;;;;1702962;28;10254587;-89
2023/06/19 06:07:04;;;;;;;4.82;4.07;;;;;;;;;;2046625;29;20120;-92